Time;durP1;ratioP1;P1;durP2;ratioP2;P2;SDS_P1;SDS_P2;PMS_P1;PMS_P2;Temp;Humidity;BMP_temperature;BMP_pressure;BME280_temperature;BME280_humidity;BME280_pressure;Samples;Min_cycle;Max_cycle;Signal;HPM_P1;HPM_P2
2022/05/13 00:02:11;;;;;;;0.50;0.50;;;11.70;99.90;;;;;;5015202;28;20069;-68
2022/05/13 00:04:38;;;;;;;0.35;0.35;;;11.80;99.90;;;;;;5015186;28;20119;-70
2022/05/13 00:07:04;;;;;;;4.57;1.13;;;11.80;99.90;;;;;;5026919;28;20037;-68
2022/05/13 00:12:15;;;;;;;0.50;0.50;;;11.90;99.90;;;;;;5034103;28;20042;-69
2022/05/13 00:14:42;;;;;;;0.60;0.60;;;11.90;99.90;;;;;;5034389;28;20048;-68
2022/05/13 00:17:08;;;;;;;0.40;0.40;;;12.00;99.90;;;;;;5034535;28;20049;-69
2022/05/13 00:19:34;;;;;;;0.35;0.35;;;11.90;99.90;;;;;;5034453;28;20045;-68
2022/05/13 00:22:00;;;;;;;0.50;0.50;;;12.00;99.90;;;;;;5034262;28;20107;-69
2022/05/13 00:24:26;;;;;;;1.02;0.90;;;12.00;99.90;;;;;;5017353;28;20446;-68
2022/05/13 00:26:51;;;;;;;0.30;0.30;;;12.00;99.90;;;;;;5017586;28;20053;-69
2022/05/13 00:29:17;;;;;;;0.55;0.38;;;12.00;99.90;;;;;;5033995;28;20046;-68
2022/05/13 00:31:43;;;;;;;0.30;0.30;;;12.10;99.90;;;;;;5037853;28;20179;-69
2022/05/13 00:34:09;;;;;;;0.40;0.40;;;12.10;99.90;;;;;;5038120;28;20033;-69
2022/05/13 00:36:36;;;;;;;0.30;0.30;;;12.10;99.90;;;;;;5020128;28;20132;-69
2022/05/13 00:39:04;;;;;;;0.40;0.40;;;12.10;99.90;;;;;;5037703;28;20128;-68
2022/05/13 00:41:30;;;;;;;1.77;1.67;;;12.20;99.90;;;;;;5038041;28;20220;-69
2022/05/13 00:43:56;;;;;;;0.40;0.40;;;12.20;99.90;;;;;;5037469;28;20049;-70
2022/05/13 00:46:23;;;;;;;0.57;0.45;;;12.10;99.90;;;;;;5037913;28;20373;-68
2022/05/13 00:48:50;;;;;;;0.30;0.30;;;12.10;99.90;;;;;;5037840;28;20041;-69
2022/05/13 00:51:24;;;;;;;0.30;0.30;;;12.20;99.90;;;;;;5037515;28;20057;-69
2022/05/13 00:53:50;;;;;;;0.57;0.57;;;12.20;99.90;;;;;;5037536;28;20085;-68
2022/05/13 00:56:16;;;;;;;0.60;0.60;;;12.20;99.90;;;;;;5037253;28;20084;-69
2022/05/13 00:58:46;;;;;;;0.30;0.30;;;12.20;99.90;;;;;;5037313;28;20099;-68
2022/05/13 01:01:13;;;;;;;0.30;0.30;;;12.20;99.90;;;;;;5036806;28;20426;-69
2022/05/13 01:03:40;;;;;;;4.03;1.95;;;12.20;99.90;;;;;;5036964;28;20129;-68
2022/05/13 01:06:10;;;;;;;0.30;0.30;;;12.20;99.90;;;;;;5037281;28;20128;-68
2022/05/13 01:08:37;;;;;;;0.40;0.40;;;12.30;99.90;;;;;;5037317;28;20060;-69
2022/05/13 01:11:07;;;;;;;0.35;0.35;;;12.30;99.90;;;;;;5037520;28;20049;-68
2022/05/13 01:13:37;;;;;;;0.55;0.55;;;12.40;99.90;;;;;;5037409;28;20053;-69
2022/05/13 01:16:03;;;;;;;0.25;0.25;;;12.40;99.90;;;;;;5037257;28;20420;-68
2022/05/13 01:18:38;;;;;;;0.30;0.30;;;12.40;99.90;;;;;;5036925;28;20041;-69
2022/05/13 01:21:07;;;;;;;2.05;1.95;;;12.50;99.90;;;;;;5036736;28;20038;-69
2022/05/13 01:23:37;;;;;;;0.30;0.30;;;12.50;99.90;;;;;;5037093;28;20046;-69
2022/05/13 01:26:07;;;;;;;0.95;0.95;;;12.50;99.90;;;;;;5037386;28;20121;-70
2022/05/13 01:28:37;;;;;;;0.30;0.30;;;12.50;99.90;;;;;;5036585;28;20046;-69
2022/05/13 01:31:07;;;;;;;0.20;0.20;;;12.50;99.90;;;;;;5036077;28;20073;-69
2022/05/13 01:33:33;;;;;;;0.57;0.57;;;12.50;99.90;;;;;;5036644;28;20056;-68
2022/05/13 01:36:00;;;;;;;2.47;1.42;;;12.50;99.90;;;;;;5036703;28;20129;-68
2022/05/13 01:38:30;;;;;;;0.45;0.38;;;12.50;99.90;;;;;;5037110;28;20053;-68
2022/05/13 01:40:56;;;;;;;0.30;0.30;;;12.50;99.90;;;;;;5036353;28;20048;-68
2022/05/13 01:43:22;;;;;;;0.35;0.35;;;12.50;99.90;;;;;;5036150;28;20366;-68
2022/05/13 01:45:48;;;;;;;0.50;0.50;;;12.50;99.90;;;;;;5036631;28;20041;-69
2022/05/13 01:48:14;;;;;;;0.30;0.30;;;12.50;99.90;;;;;;5036487;28;20052;-69
2022/05/13 01:50:40;;;;;;;0.47;0.47;;;12.50;99.90;;;;;;5036559;28;20478;-69
2022/05/13 01:53:08;;;;;;;0.50;0.50;;;12.50;99.90;;;;;;5019459;28;20055;-69
2022/05/13 01:55:34;;;;;;;0.40;0.40;;;12.50;99.90;;;;;;5033152;28;20042;-68
2022/05/13 01:57:59;;;;;;;0.85;0.82;;;12.50;99.90;;;;;;5036319;28;20119;-69
2022/05/13 02:00:26;;;;;;;1.40;1.30;;;12.50;99.90;;;;;;5036027;28;20049;-69
2022/05/13 02:05:36;;;;;;;0.28;0.28;;;12.50;99.90;;;;;;5018696;28;20065;-68
2022/05/13 02:08:02;;;;;;;0.50;0.50;;;12.50;99.90;;;;;;5036336;28;20050;-67
2022/05/13 02:10:29;;;;;;;0.30;0.30;;;12.50;99.90;;;;;;5035967;28;20081;-67
2022/05/13 02:12:56;;;;;;;0.40;0.40;;;12.50;99.90;;;;;;5036430;28;21176;-68
2022/05/13 02:15:21;;;;;;;0.85;0.85;;;12.50;99.90;;;;;;5035916;28;20045;-69
2022/05/13 02:17:47;;;;;;;0.40;0.40;;;12.50;99.90;;;;;;5035972;28;20365;-70
2022/05/13 02:20:13;;;;;;;0.45;0.45;;;12.50;99.90;;;;;;5018283;28;20041;-68
2022/05/13 02:22:38;;;;;;;0.40;0.40;;;12.50;99.90;;;;;;5018680;28;20128;-69
2022/05/13 02:25:05;;;;;;;0.40;0.40;;;12.50;99.90;;;;;;5035593;28;20128;-68
2022/05/13 02:27:30;;;;;;;0.30;0.30;;;12.50;99.90;;;;;;5035792;28;20365;-68
2022/05/13 02:29:56;;;;;;;3.63;1.15;;;12.50;99.90;;;;;;5018627;28;20057;-67
2022/05/13 02:32:21;;;;;;;0.40;0.40;;;12.50;99.90;;;;;;5035503;28;20355;-67
2022/05/13 02:34:47;;;;;;;0.65;0.65;;;12.50;99.90;;;;;;5035665;28;20340;-69
2022/05/13 02:37:13;;;;;;;0.30;0.30;;;12.40;99.90;;;;;;5036108;28;20136;-69
2022/05/13 02:39:38;;;;;;;3.05;2.85;;;12.50;99.90;;;;;;5035679;28;20111;-69
2022/05/13 02:42:04;;;;;;;3.10;1.38;;;12.40;99.90;;;;;;5035300;28;20070;-69
2022/05/13 02:44:30;;;;;;;0.30;0.30;;;12.40;99.90;;;;;;5035527;28;20046;-68
2022/05/13 02:46:55;;;;;;;0.40;0.40;;;12.40;99.90;;;;;;5002116;28;20468;-68
2022/05/13 02:49:21;;;;;;;0.40;0.40;;;12.40;99.90;;;;;;5035617;28;20487;-68
2022/05/13 02:51:48;;;;;;;2.05;1.55;;;12.40;99.90;;;;;;5035538;28;20120;-68
2022/05/13 02:54:14;;;;;;;3.08;2.00;;;12.40;99.90;;;;;;5034093;28;20110;-68
2022/05/13 02:56:40;;;;;;;5.38;3.75;;;12.40;99.90;;;;;;5034555;28;20049;-69
2022/05/13 02:59:05;;;;;;;2.03;1.25;;;12.40;99.90;;;;;;5018191;28;20406;-69
2022/05/13 03:01:32;;;;;;;1.77;1.58;;;12.40;99.90;;;;;;5034921;28;20053;-68
2022/05/13 03:03:58;;;;;;;1.08;0.98;;;12.40;99.90;;;;;;5034963;28;20056;-67
2022/05/13 03:06:25;;;;;;;5.35;3.70;;;12.30;99.90;;;;;;5035233;28;20053;-69
2022/05/13 03:08:51;;;;;;;2.25;1.35;;;12.30;99.90;;;;;;5035107;28;20361;-69
2022/05/13 03:11:17;;;;;;;1.95;1.58;;;12.30;99.90;;;;;;5034919;28;20060;-67
2022/05/13 03:13:43;;;;;;;2.72;1.83;;;12.30;99.90;;;;;;5035397;28;20052;-68
2022/05/13 03:16:15;;;;;;;3.47;1.08;;;12.20;99.90;;;;;;5035009;28;20389;-69
2022/05/13 03:18:41;;;;;;;2.83;2.58;;;12.30;99.90;;;;;;5001429;28;20072;-68
2022/05/13 03:21:07;;;;;;;1.08;1.00;;;12.20;99.90;;;;;;5034830;28;20049;-69
2022/05/13 03:23:33;;;;;;;1.45;0.88;;;12.20;99.90;;;;;;5034632;28;20037;-69
2022/05/13 03:25:59;;;;;;;0.65;0.65;;;12.20;99.90;;;;;;5034559;28;20512;-69
2022/05/13 03:28:25;;;;;;;0.43;0.40;;;12.20;99.90;;;;;;5034548;28;20359;-68
2022/05/13 03:30:51;;;;;;;0.45;0.45;;;12.20;99.90;;;;;;5034918;28;20342;-68
2022/05/13 03:33:18;;;;;;;1.27;0.60;;;12.20;99.90;;;;;;5035036;28;20045;-68
2022/05/13 03:35:44;;;;;;;1.08;0.73;;;12.20;99.90;;;;;;5034943;28;20049;-68
2022/05/13 03:38:10;;;;;;;0.50;0.43;;;12.10;99.90;;;;;;5034684;28;20048;-68
2022/05/13 03:40:36;;;;;;;0.55;0.55;;;12.20;99.90;;;;;;5017866;28;20049;-69
2022/05/13 03:43:03;;;;;;;0.30;0.30;;;12.10;99.90;;;;;;5035068;28;20055;-69
2022/05/13 03:45:30;;;;;;;0.20;0.20;;;12.10;99.90;;;;;;5034595;28;20042;-69
2022/05/13 03:47:56;;;;;;;0.40;0.40;;;12.20;99.90;;;;;;5034923;28;20093;-69
2022/05/13 03:50:22;;;;;;;1.48;0.50;;;12.20;99.90;;;;;;5034705;28;20142;-68
2022/05/13 03:52:47;;;;;;;0.30;0.30;;;12.20;99.90;;;;;;5034702;28;20081;-69
2022/05/13 03:55:13;;;;;;;0.30;0.30;;;12.20;99.90;;;;;;5033753;28;20442;-69
2022/05/13 03:57:39;;;;;;;0.38;0.38;;;12.20;99.90;;;;;;5034190;28;20077;-69
2022/05/13 04:00:06;;;;;;;0.40;0.40;;;12.20;99.90;;;;;;5034569;28;20050;-68
2022/05/13 04:02:32;;;;;;;0.40;0.40;;;12.20;99.90;;;;;;5031765;28;20370;-69
2022/05/13 04:10:26;;;;;;;0.47;0.47;;;12.30;99.90;;;;;;5038680;28;20046;-68
2022/05/13 04:18:21;;;;;;;0.30;0.30;;;12.20;99.90;;;;;;5037891;28;20466;-68
2022/05/13 04:20:47;;;;;;;0.65;0.65;;;12.20;99.90;;;;;;5037928;28;20049;-68
2022/05/13 04:23:13;;;;;;;0.30;0.30;;;12.30;99.90;;;;;;5037767;28;20041;-68
2022/05/13 04:25:39;;;;;;;0.30;0.30;;;12.30;99.90;;;;;;5038997;28;20053;-70
2022/05/13 04:28:05;;;;;;;0.38;0.38;;;12.30;99.90;;;;;;5039407;28;20045;-68
2022/05/13 04:30:31;;;;;;;3.20;1.33;;;12.30;99.90;;;;;;5020067;28;20048;-68
2022/05/13 04:32:57;;;;;;;0.50;0.50;;;12.30;99.90;;;;;;5037395;28;20041;-67
2022/05/13 04:35:22;;;;;;;0.32;0.32;;;12.30;99.90;;;;;;5025028;28;20050;-68
2022/05/13 04:37:48;;;;;;;0.32;0.32;;;12.30;99.90;;;;;;5017986;28;20054;-67
2022/05/13 04:40:13;;;;;;;0.32;0.32;;;12.30;99.90;;;;;;5017989;28;20129;-68
2022/05/13 04:42:51;;;;;;;1.33;1.23;;;12.20;99.90;;;;;;5017889;28;20081;-68
2022/05/13 04:45:25;;;;;;;0.50;0.50;;;12.30;99.90;;;;;;5017929;28;20054;-69
2022/05/13 04:48:21;;;;;;;2.13;0.82;;;12.30;99.90;;;;;;5012835;28;20053;-67
2022/05/13 04:50:58;;;;;;;0.30;0.30;;;12.30;99.90;;;;;;5037742;28;20116;-68
2022/05/13 04:53:27;;;;;;;2.17;1.08;;;12.30;99.90;;;;;;5037398;28;20041;-68
2022/05/13 04:55:54;;;;;;;1.30;0.95;;;12.30;99.90;;;;;;5037290;28;20347;-69
2022/05/13 04:58:21;;;;;;;0.50;0.50;;;12.30;99.90;;;;;;5037146;28;20471;-69
2022/05/13 05:00:49;;;;;;;0.90;0.90;;;12.30;99.90;;;;;;5037069;28;20041;-69
2022/05/13 05:03:16;;;;;;;1.65;1.35;;;12.30;99.90;;;;;;5036774;28;20446;-69
2022/05/13 05:05:43;;;;;;;0.30;0.30;;;12.40;99.90;;;;;;5036978;28;20049;-68
2022/05/13 05:08:10;;;;;;;0.40;0.40;;;12.30;99.90;;;;;;5037060;28;20118;-68
2022/05/13 05:10:37;;;;;;;2.13;0.75;;;12.40;99.90;;;;;;5037418;28;20154;-68
2022/05/13 05:13:02;;;;;;;0.40;0.40;;;12.40;99.90;;;;;;5020083;28;20045;-68
2022/05/13 05:15:28;;;;;;;0.50;0.50;;;12.50;99.90;;;;;;5033899;28;20052;-68
2022/05/13 05:17:55;;;;;;;0.30;0.30;;;12.50;99.90;;;;;;5036446;28;20051;-68
2022/05/13 05:20:22;;;;;;;0.65;0.65;;;12.60;99.90;;;;;;5037481;28;20092;-69
2022/05/13 05:22:47;;;;;;;0.40;0.40;;;12.70;99.90;;;;;;5036812;28;20045;-69
2022/05/13 05:25:19;;;;;;;0.50;0.50;;;12.80;99.90;;;;;;5036816;28;20120;-68
2022/05/13 05:27:44;;;;;;;0.43;0.43;;;12.90;99.90;;;;;;5019754;28;20473;-68
2022/05/13 05:30:12;;;;;;;0.32;0.32;;;12.90;99.90;;;;;;5036576;28;20140;-68
2022/05/13 05:32:41;;;;;;;0.38;0.38;;;13.00;99.90;;;;;;5033883;28;20445;-69
2022/05/13 05:35:09;;;;;;;0.40;0.40;;;12.90;99.90;;;;;;5034889;28;20053;-70
2022/05/13 05:37:35;;;;;;;14.18;1.10;;;13.00;99.90;;;;;;5034885;28;20133;-69
2022/05/13 05:40:02;;;;;;;0.57;0.55;;;13.10;99.90;;;;;;5036594;28;20517;-69
2022/05/13 05:42:27;;;;;;;0.30;0.30;;;13.20;99.90;;;;;;5036652;28;20049;-69
2022/05/13 05:44:53;;;;;;;0.50;0.50;;;13.30;99.90;;;;;;5039039;28;20116;-71
2022/05/13 05:47:23;;;;;;;0.30;0.30;;;13.30;99.90;;;;;;5042445;28;20048;-70
2022/05/13 05:49:50;;;;;;;0.30;0.30;;;13.50;99.90;;;;;;5035379;28;20140;-69
2022/05/13 05:52:15;;;;;;;0.30;0.30;;;13.80;99.90;;;;;;5035895;28;20041;-70
2022/05/13 05:57:25;;;;;;;3.15;0.95;;;14.90;99.90;;;;;;5055739;28;20052;-71
2022/05/13 05:59:50;;;;;;;0.40;0.40;;;15.00;99.90;;;;;;5055671;28;20132;-69
2022/05/13 06:02:17;;;;;;;0.90;0.88;;;15.00;99.90;;;;;;5055308;28;20423;-70
2022/05/13 06:04:44;;;;;;;0.57;0.50;;;15.00;99.90;;;;;;5055470;28;20088;-69
2022/05/13 06:07:15;;;;;;;0.73;0.50;;;14.90;99.90;;;;;;5020463;28;20056;-69
2022/05/13 06:09:42;;;;;;;0.28;0.28;;;14.90;99.90;;;;;;5015556;28;20046;-69
2022/05/13 06:12:09;;;;;;;1.23;1.05;;;14.90;99.90;;;;;;5016320;28;20386;-70
2022/05/13 06:14:35;;;;;;;0.40;0.40;;;14.90;99.90;;;;;;5016520;28;20054;-70
2022/05/13 06:17:01;;;;;;;0.30;0.30;;;14.70;99.90;;;;;;5015768;28;20494;-71
2022/05/13 06:19:27;;;;;;;0.30;0.30;;;14.90;99.90;;;;;;5012425;28;20042;-70
2022/05/13 06:21:53;;;;;;;0.40;0.40;;;14.80;99.90;;;;;;4995966;28;20363;-71
2022/05/13 06:24:19;;;;;;;6.13;0.50;;;14.80;99.90;;;;;;5030814;28;20439;-70
2022/05/13 06:26:49;;;;;;;0.63;0.43;;;14.70;99.90;;;;;;5033647;28;20132;-70
2022/05/13 06:29:20;;;;;;;1.10;1.02;;;14.70;99.90;;;;;;5035008;28;20129;-69
2022/05/13 06:31:46;;;;;;;0.60;0.60;;;14.70;99.90;;;;;;5031962;28;20054;-68
2022/05/13 06:34:12;;;;;;;0.38;0.38;;;14.80;99.90;;;;;;5034464;28;20179;-69
2022/05/13 06:36:38;;;;;;;0.28;0.28;;;14.80;99.90;;;;;;5033493;28;20379;-66
2022/05/13 06:39:06;;;;;;;0.57;0.57;;;14.90;99.90;;;;;;5034618;28;20345;-67
2022/05/13 06:41:37;;;;;;;1.38;1.27;;;15.00;99.90;;;;;;5017189;28;20119;-65
2022/05/13 06:44:06;;;;;;;0.80;0.60;;;15.10;99.90;;;;;;5035019;28;20089;-67
2022/05/13 06:46:33;;;;;;;2.17;1.98;;;15.30;99.90;;;;;;5015025;28;20152;-67
2022/05/13 06:48:59;;;;;;;1.45;0.75;;;15.30;99.90;;;;;;5031763;28;20060;-65
2022/05/13 06:51:25;;;;;;;0.30;0.30;;;15.40;99.90;;;;;;5017469;28;20053;-66
2022/05/13 06:53:51;;;;;;;0.35;0.30;;;15.50;99.90;;;;;;5001108;28;20053;-64
2022/05/13 06:56:16;;;;;;;0.57;0.55;;;15.60;99.90;;;;;;5034308;28;20381;-66
2022/05/13 06:58:42;;;;;;;1.50;0.82;;;15.60;99.90;;;;;;5035150;28;20134;-68
2022/05/13 07:01:08;;;;;;;0.40;0.40;;;15.60;99.90;;;;;;5017082;28;20060;-65
2022/05/13 07:03:33;;;;;;;0.30;0.30;;;15.70;99.90;;;;;;5034596;28;20355;-67
2022/05/13 07:05:59;;;;;;;0.30;0.30;;;15.70;99.90;;;;;;5013707;28;20053;-66
2022/05/13 07:08:25;;;;;;;1.10;0.75;;;15.60;99.90;;;;;;4997606;28;20038;-67
2022/05/13 07:10:50;;;;;;;0.30;0.30;;;15.70;99.90;;;;;;5015151;28;20131;-67
2022/05/13 07:13:16;;;;;;;0.57;0.50;;;15.80;99.90;;;;;;5014929;28;20120;-65
2022/05/13 07:15:43;;;;;;;0.55;0.52;;;15.90;99.90;;;;;;4997555;28;20052;-67
2022/05/13 07:18:09;;;;;;;0.40;0.40;;;15.90;99.90;;;;;;5014261;28;20384;-68
2022/05/13 07:20:35;;;;;;;0.30;0.30;;;15.90;99.90;;;;;;5014745;28;20052;-66
2022/05/13 07:23:01;;;;;;;0.20;0.20;;;16.10;99.90;;;;;;5008283;28;20129;-67
2022/05/13 07:25:26;;;;;;;0.90;0.50;;;16.30;99.90;;;;;;5014675;28;20134;-66
2022/05/13 07:27:53;;;;;;;0.40;0.40;;;16.30;99.90;;;;;;5032207;28;20060;-66
2022/05/13 07:30:19;;;;;;;0.30;0.30;;;16.20;99.90;;;;;;5034625;28;20049;-65
2022/05/13 07:32:44;;;;;;;0.20;0.20;;;16.20;99.90;;;;;;5034489;28;20072;-66
2022/05/13 07:35:10;;;;;;;0.77;0.40;;;16.40;99.90;;;;;;5034510;28;20046;-65
2022/05/13 07:37:37;;;;;;;0.30;0.30;;;17.00;99.90;;;;;;5034042;28;20061;-67
2022/05/13 07:42:49;;;;;;;0.75;0.32;;;18.10;99.90;;;;;;5037864;28;20085;-65
2022/05/13 07:45:15;;;;;;;0.30;0.30;;;17.80;99.90;;;;;;5020918;28;20081;-66
2022/05/13 07:47:42;;;;;;;0.30;0.30;;;17.60;99.90;;;;;;5037991;28;20067;-65
2022/05/13 07:50:11;;;;;;;0.20;0.20;;;17.80;99.90;;;;;;5037841;28;20417;-66
2022/05/13 07:52:40;;;;;;;0.20;0.20;;;18.90;99.90;;;;;;5038189;28;20041;-68
2022/05/13 07:55:07;;;;;;;0.20;0.20;;;20.10;99.90;;;;;;5038239;28;20085;-67
2022/05/13 07:57:33;;;;;;;0.10;0.10;;;21.30;99.90;;;;;;5037893;28;20077;-67
2022/05/13 08:02:44;;;;;;;0.35;0.35;;;22.10;94.70;;;;;;5038531;28;20068;-69
2022/05/13 08:05:09;;;;;;;0.52;0.40;;;22.70;94.50;;;;;;5008809;28;20066;-69
2022/05/13 08:07:35;;;;;;;0.10;0.10;;;23.10;94.70;;;;;;5018194;28;20100;-68
2022/05/13 08:10:00;;;;;;;0.10;0.10;;;23.30;91.50;;;;;;5033829;28;20412;-70
2022/05/13 08:12:26;;;;;;;0.20;0.20;;;22.50;91.70;;;;;;5036489;28;20053;-70
2022/05/13 08:14:53;;;;;;;0.20;0.20;;;21.30;92.90;;;;;;5020245;28;20148;-70
2022/05/13 08:17:18;;;;;;;0.20;0.20;;;21.50;93.50;;;;;;5037957;28;20064;-69
2022/05/13 08:19:44;;;;;;;0.20;0.20;;;21.20;92.50;;;;;;5037540;28;20041;-69
2022/05/13 08:22:09;;;;;;;0.10;0.10;;;20.70;94.30;;;;;;5036948;28;20056;-71
2022/05/13 08:24:35;;;;;;;0.88;0.22;;;19.50;95.50;;;;;;5036828;28;20048;-70
2022/05/13 08:27:01;;;;;;;0.10;0.10;;;19.20;97.20;;;;;;5037283;28;20053;-71
2022/05/13 08:29:26;;;;;;;0.15;0.15;;;19.10;97.60;;;;;;5019031;28;20072;-69
2022/05/13 08:31:52;;;;;;;0.20;0.20;;;18.90;98.00;;;;;;5015725;28;20057;-70
2022/05/13 08:34:17;;;;;;;0.20;0.20;;;18.50;98.50;;;;;;5028577;28;20091;-70
2022/05/13 08:36:43;;;;;;;1.15;1.05;;;18.10;99.50;;;;;;5036255;28;20052;-71
2022/05/13 08:39:10;;;;;;;0.10;0.10;;;17.80;99.90;;;;;;5015918;28;20081;-70
2022/05/13 08:42:04;;;;;;;0.35;0.35;;;17.60;99.90;;;;;;5035150;28;20154;-68
2022/05/13 08:44:31;;;;;;;0.30;0.30;;;18.10;99.90;;;;;;5019990;28;20139;-69
2022/05/13 08:47:22;;;;;;;0.10;0.10;;;18.60;99.90;;;;;;5037418;28;20132;-71
2022/05/13 08:49:55;;;;;;;0.30;0.30;;;18.50;99.90;;;;;;5037398;28;20060;-71
2022/05/13 08:58:01;;;;;;;1.45;1.35;;;18.90;99.50;;;;;;5014438;28;20058;-72
2022/05/13 09:00:41;;;;;;;0.17;0.17;;;19.30;99.40;;;;;;4990602;28;20095;-70
2022/05/13 09:03:07;;;;;;;0.10;0.10;;;19.10;98.40;;;;;;5013127;28;20045;-70
2022/05/13 09:05:42;;;;;;;0.10;0.10;;;18.90;99.10;;;;;;5007631;28;20052;-70
2022/05/13 09:08:08;;;;;;;0.38;0.38;;;19.00;99.90;;;;;;5013126;28;20042;-70
2022/05/13 09:10:58;;;;;;;3.03;1.45;;;19.70;99.90;;;;;;5007338;28;20046;-71
2022/05/13 09:13:39;;;;;;;1.35;1.17;;;20.20;99.10;;;;;;5013514;28;20180;-72
2022/05/13 09:16:08;;;;;;;0.25;0.25;;;20.60;97.70;;;;;;5010465;28;20480;-72
2022/05/13 09:18:50;;;;;;;0.20;0.20;;;20.50;97.20;;;;;;5016445;28;20054;-71
2022/05/13 09:21:19;;;;;;;0.17;0.17;;;20.40;96.20;;;;;;4999398;28;20400;-70
2022/05/13 09:23:45;;;;;;;0.10;0.10;;;20.10;97.70;;;;;;5016650;28;20052;-70
2022/05/13 09:26:14;;;;;;;0.13;0.13;;;19.80;96.10;;;;;;5016935;28;20041;-73
2022/05/13 09:29:11;;;;;;;0.15;0.15;;;19.40;96.60;;;;;;4997232;28;20107;-70
2022/05/13 09:32:00;;;;;;;0.20;0.20;;;19.00;98.40;;;;;;5015892;28;20073;-71
2022/05/13 09:34:34;;;;;;;0.13;0.13;;;18.90;98.70;;;;;;5015298;28;20096;-71
2022/05/13 09:37:17;;;;;;;0.65;0.30;;;18.60;98.50;;;;;;5015324;28;20050;-72
2022/05/13 09:39:45;;;;;;;0.20;0.20;;;18.80;99.60;;;;;;5016156;28;20050;-72
2022/05/13 09:42:18;;;;;;;1.00;0.95;;;18.90;99.00;;;;;;5016462;28;20057;-72
2022/05/13 09:44:44;;;;;;;0.10;0.10;;;18.50;99.10;;;;;;5014838;28;20053;-71
2022/05/13 09:47:20;;;;;;;0.47;0.40;;;18.40;99.10;;;;;;5015230;28;20421;-71
2022/05/13 09:49:48;;;;;;;0.20;0.20;;;18.00;99.50;;;;;;4998780;28;20100;-72
2022/05/13 09:52:34;;;;;;;0.25;0.25;;;17.80;99.90;;;;;;5016452;28;20053;-73
2022/05/13 09:55:23;;;;;;;1.02;0.55;;;17.70;99.90;;;;;;5016225;28;20056;-71
2022/05/13 09:57:49;;;;;;;0.30;0.30;;;17.80;99.90;;;;;;5015440;28;20525;-72
2022/05/13 10:00:22;;;;;;;0.25;0.25;;;17.60;99.90;;;;;;5013689;28;20077;-69
2022/05/13 10:02:49;;;;;;;0.10;0.10;;;17.40;99.90;;;;;;5014634;28;20038;-71
2022/05/13 10:05:19;;;;;;;2.95;0.40;;;17.20;99.90;;;;;;5015132;28;20037;-71
2022/05/13 10:08:02;;;;;;;0.22;0.22;;;17.00;99.90;;;;;;5015958;28;20046;-70
2022/05/13 10:16:12;;;;;;;2.63;0.60;;;17.50;99.90;;;;;;4986195;28;20049;-70
2022/05/13 10:19:02;;;;;;;0.25;0.25;;;17.90;99.90;;;;;;4997674;28;20037;-72
2022/05/13 10:21:33;;;;;;;0.75;0.75;;;18.30;99.90;;;;;;5015452;28;20137;-70
2022/05/13 10:24:07;;;;;;;1.45;0.30;;;18.70;99.90;;;;;;4979371;28;20054;-70
2022/05/13 10:26:38;;;;;;;0.20;0.20;;;18.80;99.40;;;;;;4996028;28;20047;-69
2022/05/13 10:29:10;;;;;;;0.15;0.15;;;18.70;99.10;;;;;;5003783;28;20053;-69
2022/05/13 10:31:40;;;;;;;0.20;0.20;;;18.60;99.10;;;;;;5014754;28;20041;-68
2022/05/13 10:34:24;;;;;;;0.20;0.20;;;18.60;98.90;;;;;;5015344;28;20057;-72
2022/05/13 10:37:04;;;;;;;;;;;18.20;98.80;;;;;;5015220;28;20050;-69
2022/05/13 10:39:44;;;;;;;0.50;0.50;;;18.40;99.60;;;;;;5015772;28;19932;-68
2022/05/13 10:42:28;;;;;;;0.88;0.70;;;18.70;98.50;;;;;;5015203;28;20131;-68
2022/05/13 10:44:59;;;;;;;;;;;19.10;97.80;;;;;;5015309;28;20077;-69
2022/05/13 10:47:58;;;;;;;0.20;0.20;;;19.60;99.00;;;;;;4997514;28;19944;-69
2022/05/13 10:50:29;;;;;;;0.20;0.20;;;20.00;96.00;;;;;;5015042;28;20524;-69
2022/05/13 10:53:07;;;;;;;0.20;0.20;;;20.20;95.10;;;;;;5015231;28;20097;-70
2022/05/13 10:55:36;;;;;;;0.20;0.20;;;20.20;95.60;;;;;;4996691;28;20123;-70
2022/05/13 10:58:22;;;;;;;0.30;0.30;;;20.00;95.10;;;;;;5014904;28;20342;-70
2022/05/13 11:01:09;;;;;;;0.85;0.52;;;20.00;95.60;;;;;;5014448;28;20422;-70
2022/05/13 11:03:51;;;;;;;0.20;0.20;;;19.80;94.90;;;;;;5015236;28;20041;-71
2022/05/13 11:06:42;;;;;;;0.20;0.20;;;19.60;94.70;;;;;;5014034;28;20041;-70
2022/05/13 11:09:51;;;;;;;0.20;0.20;;;19.30;95.40;;;;;;5014817;28;20125;-72
2022/05/13 11:12:28;;;;;;;0.30;0.30;;;18.90;96.40;;;;;;5015288;28;20060;-70
2022/05/13 11:15:32;;;;;;;0.32;0.30;;;18.70;96.80;;;;;;5013268;28;20046;-70
2022/05/13 11:18:31;;;;;;;0.10;0.10;;;18.60;97.10;;;;;;5014097;28;20054;-69
2022/05/13 11:21:18;;;;;;;0.30;0.30;;;18.40;98.10;;;;;;5014474;28;20046;-70
2022/05/13 11:23:44;;;;;;;0.55;0.30;;;18.20;98.30;;;;;;5001410;28;20378;-71
2022/05/13 11:26:21;;;;;;;0.30;0.30;;;18.20;98.70;;;;;;5014470;28;20041;-71
2022/05/13 11:29:06;;;;;;;0.68;0.68;;;18.40;99.10;;;;;;5012168;28;20052;-69
2022/05/13 11:32:05;;;;;;;0.32;0.28;;;18.80;99.30;;;;;;4996571;28;20057;-70
2022/05/13 11:34:45;;;;;;;0.88;0.70;;;19.10;99.20;;;;;;4994830;28;20050;-71
2022/05/13 11:37:16;;;;;;;0.20;0.20;;;19.40;98.10;;;;;;4994931;28;20062;-72
2022/05/13 11:40:07;;;;;;;0.20;0.20;;;19.70;97.50;;;;;;4996728;28;20054;-69
2022/05/13 11:46:18;;;;;;;0.10;0.10;;;19.80;96.80;;;;;;5014277;28;20050;-71
2022/05/13 11:48:46;;;;;;;0.40;0.40;;;20.00;96.70;;;;;;4996671;28;20050;-71
2022/05/13 11:51:16;;;;;;;0.17;0.17;;;20.00;96.50;;;;;;5015031;28;20381;-71
2022/05/13 11:53:43;;;;;;;0.55;0.47;;;20.10;96.30;;;;;;5013823;28;20049;-71
2022/05/13 11:56:32;;;;;;;0.10;0.10;;;20.20;96.40;;;;;;4997034;28;20173;-73
2022/05/13 11:59:11;;;;;;;3.10;0.85;;;20.00;95.10;;;;;;5013392;28;20410;-70
2022/05/13 12:01:36;;;;;;;0.25;0.25;;;20.10;96.60;;;;;;5013353;28;20050;-69
2022/05/13 12:04:14;;;;;;;0.40;0.40;;;20.10;95.20;;;;;;5014085;28;20068;-71
2022/05/13 12:06:52;;;;;;;0.28;0.28;;;19.90;95.50;;;;;;5014159;28;20362;-70
2022/05/13 12:09:21;;;;;;;0.20;0.20;;;20.00;95.80;;;;;;4996911;28;20076;-70
2022/05/13 12:12:05;;;;;;;0.20;0.20;;;20.00;96.30;;;;;;5012244;28;20503;-70
2022/05/13 12:14:47;;;;;;;;;;;19.90;95.70;;;;;;5014219;28;20129;-67
2022/05/13 12:17:34;;;;;;;0.38;0.38;;;19.90;96.10;;;;;;5013621;28;19925;-68
2022/05/13 12:20:20;;;;;;;0.30;0.30;;;19.80;95.90;;;;;;4996123;28;20049;-69
2022/05/13 12:23:08;;;;;;;1.65;1.00;;;19.80;96.10;;;;;;4996790;28;20054;-72
2022/05/13 12:25:33;;;;;;;0.35;0.35;;;20.00;96.10;;;;;;4995253;28;20128;-71
2022/05/13 12:28:04;;;;;;;0.20;0.20;;;19.80;95.20;;;;;;5009075;28;20125;-70
2022/05/13 12:30:34;;;;;;;0.30;0.30;;;20.00;95.00;;;;;;5016736;28;20042;-73
2022/05/13 12:33:29;;;;;;;0.10;0.10;;;20.20;95.70;;;;;;5017383;28;20034;-70
2022/05/13 12:39:19;;;;;;;6.50;2.08;;;20.40;93.30;;;;;;5017416;28;20054;-75
2022/05/13 12:41:53;;;;;;;0.10;0.10;;;20.50;92.70;;;;;;5001074;28;20058;-73
2022/05/13 12:44:32;;;;;;;0.10;0.10;;;20.60;93.70;;;;;;5017377;28;20508;-72
2022/05/13 12:47:13;;;;;;;0.20;0.20;;;20.60;93.30;;;;;;5017102;28;20056;-70
2022/05/13 12:49:58;;;;;;;0.13;0.13;;;20.60;92.40;;;;;;4999950;28;20053;-71
2022/05/13 12:52:26;;;;;;;0.10;0.10;;;20.50;93.20;;;;;;5017891;28;20041;-69
2022/05/13 12:55:22;;;;;;;0.20;0.20;;;20.80;92.90;;;;;;5017606;28;20063;-71
2022/05/13 12:57:59;;;;;;;0.10;0.10;;;20.60;92.50;;;;;;5000091;28;20497;-71
2022/05/13 13:00:44;;;;;;;0.17;0.17;;;20.70;92.60;;;;;;5017602;28;20453;-69
2022/05/13 13:03:13;;;;;;;0.20;0.20;;;20.70;92.30;;;;;;5028904;28;20046;-70
2022/05/13 13:05:42;;;;;;;0.40;0.40;;;20.60;90.80;;;;;;5036812;28;20424;-70
2022/05/13 13:08:20;;;;;;;0.20;0.20;;;20.40;91.30;;;;;;5036488;28;20052;-70
2022/05/13 13:11:00;;;;;;;0.32;0.32;;;20.20;91.60;;;;;;5036615;28;20124;-69
2022/05/13 13:13:50;;;;;;;1.20;1.10;;;19.90;91.60;;;;;;5036260;28;20122;-73
2022/05/13 13:16:45;;;;;;;1.25;0.52;;;19.90;91.90;;;;;;5024056;28;20046;-71
2022/05/13 13:19:18;;;;;;;0.20;0.20;;;20.10;93.00;;;;;;5016426;28;20107;-70
2022/05/13 13:21:50;;;;;;;0.25;0.20;;;20.20;93.30;;;;;;5016102;28;20378;-70
2022/05/13 13:24:19;;;;;;;0.13;0.13;;;20.30;93.60;;;;;;4998880;28;20042;-71
2022/05/13 13:26:48;;;;;;;0.10;0.10;;;20.10;92.70;;;;;;5016912;28;20038;-71
2022/05/13 13:29:23;;;;;;;0.10;0.10;;;20.20;92.20;;;;;;5016540;28;20441;-71
2022/05/13 13:31:51;;;;;;;0.10;0.10;;;20.10;92.40;;;;;;5016819;28;20046;-73
2022/05/13 13:34:38;;;;;;;0.10;0.10;;;19.90;93.00;;;;;;5013912;28;20057;-71
2022/05/13 13:37:07;;;;;;;0.10;0.10;;;20.00;93.70;;;;;;4981157;28;20354;-70
2022/05/13 13:39:33;;;;;;;0.10;0.10;;;20.20;94.50;;;;;;5023101;28;20050;-71
2022/05/13 13:42:11;;;;;;;0.73;0.73;;;20.40;94.00;;;;;;5015929;28;20204;-73
2022/05/13 13:44:41;;;;;;;0.68;0.32;;;20.40;93.80;;;;;;5015594;28;20116;-72
2022/05/13 13:47:25;;;;;;;1.75;0.40;;;20.50;93.00;;;;;;5016276;28;20060;-72
2022/05/13 13:49:51;;;;;;;0.20;0.20;;;20.60;92.80;;;;;;5016635;28;20052;-71